sensor_id;sensor_type;location;lat;lon;timestamp;temperature;humidity
3980;DHT22;2004;52.452;13.120;2023-04-12T00:01:37;4.30;99.90
3980;DHT22;2004;52.452;13.120;2023-04-12T00:09:29;4.20;99.90
3980;DHT22;2004;52.452;13.120;2023-04-12T00:17:22;4.10;99.90
3980;DHT22;2004;52.452;13.120;2023-04-12T00:25:12;4.10;99.90
3980;DHT22;2004;52.452;13.120;2023-04-12T00:33:03;4.00;99.90
3980;DHT22;2004;52.452;13.120;2023-04-12T00:40:54;3.90;99.90
3980;DHT22;2004;52.452;13.120;2023-04-12T00:48:45;3.80;99.90
3980;DHT22;2004;52.452;13.120;2023-04-12T00:56:38;3.70;99.90
3980;DHT22;2004;52.452;13.120;2023-04-12T01:04:30;3.60;99.90
3980;DHT22;2004;52.452;13.120;2023-04-12T01:20:34;3.50;99.90
3980;DHT22;2004;52.452;13.120;2023-04-12T01:28:32;3.50;99.90
3980;DHT22;2004;52.452;13.120;2023-04-12T01:36:25;3.40;99.90
3980;DHT22;2004;52.452;13.120;2023-04-12T01:44:19;3.40;99.90
3980;DHT22;2004;52.452;13.120;2023-04-12T01:52:12;3.20;99.90
3980;DHT22;2004;52.452;13.120;2023-04-12T02:00:04;3.20;99.90
3980;DHT22;2004;52.452;13.120;2023-04-12T02:07:57;3.10;99.90
3980;DHT22;2004;52.452;13.120;2023-04-12T02:15:49;3.10;99.90
3980;DHT22;2004;52.452;13.120;2023-04-12T02:23:39;3.10;99.90
3980;DHT22;2004;52.452;13.120;2023-04-12T02:31:31;3.00;99.90
3980;DHT22;2004;52.452;13.120;2023-04-12T02:39:22;2.90;99.90
3980;DHT22;2004;52.452;13.120;2023-04-12T02:47:13;2.90;99.90
3980;DHT22;2004;52.452;13.120;2023-04-12T02:55:04;2.80;99.90
3980;DHT22;2004;52.452;13.120;2023-04-12T03:02:55;2.80;99.90
3980;DHT22;2004;52.452;13.120;2023-04-12T03:10:48;2.70;99.90
3980;DHT22;2004;52.452;13.120;2023-04-12T03:18:39;2.60;99.90
3980;DHT22;2004;52.452;13.120;2023-04-12T03:26:29;2.50;99.90
3980;DHT22;2004;52.452;13.120;2023-04-12T03:34:20;2.40;99.90
3980;DHT22;2004;52.452;13.120;2023-04-12T03:42:13;2.40;99.90
3980;DHT22;2004;52.452;13.120;2023-04-12T03:50:05;2.40;99.90
3980;DHT22;2004;52.452;13.120;2023-04-12T03:57:56;2.30;99.90
3980;DHT22;2004;52.452;13.120;2023-04-12T04:05:47;2.30;99.90
3980;DHT22;2004;52.452;13.120;2023-04-12T04:13:39;2.20;99.90
3980;DHT22;2004;52.452;13.120;2023-04-12T04:21:30;2.20;99.90
3980;DHT22;2004;52.452;13.120;2023-04-12T04:29:21;2.20;99.90
3980;DHT22;2004;52.452;13.120;2023-04-12T04:37:12;2.20;99.90
3980;DHT22;2004;52.452;13.120;2023-04-12T04:45:03;2.20;99.90
3980;DHT22;2004;52.452;13.120;2023-04-12T04:53:02;2.20;99.90
3980;DHT22;2004;52.452;13.120;2023-04-12T05:00:56;2.20;99.90
3980;DHT22;2004;52.452;13.120;2023-04-12T05:08:48;2.20;99.90
3980;DHT22;2004;52.452;13.120;2023-04-12T05:16:39;2.20;99.90
3980;DHT22;2004;52.452;13.120;2023-04-12T05:24:30;2.30;99.90
3980;DHT22;2004;52.452;13.120;2023-04-12T05:32:22;2.40;99.90
3980;DHT22;2004;52.452;13.120;2023-04-12T05:40:14;2.50;99.90
3980;DHT22;2004;52.452;13.120;2023-04-12T05:48:04;2.70;99.90
3980;DHT22;2004;52.452;13.120;2023-04-12T05:55:55;2.90;99.90
3980;DHT22;2004;52.452;13.120;2023-04-12T06:03:47;3.20;99.90
3980;DHT22;2004;52.452;13.120;2023-04-12T06:11:37;3.50;99.90
3980;DHT22;2004;52.452;13.120;2023-04-12T06:19:28;3.70;99.90
3980;DHT22;2004;52.452;13.120;2023-04-12T06:27:19;3.90;99.90
3980;DHT22;2004;52.452;13.120;2023-04-12T06:35:11;4.10;99.90
3980;DHT22;2004;52.452;13.120;2023-04-12T06:43:02;4.30;99.90
3980;DHT22;2004;52.452;13.120;2023-04-12T06:50:52;4.50;99.90
3980;DHT22;2004;52.452;13.120;2023-04-12T06:58:46;4.80;99.90
3980;DHT22;2004;52.452;13.120;2023-04-12T07:06:38;5.10;99.90
3980;DHT22;2004;52.452;13.120;2023-04-12T07:14:30;5.50;99.90
3980;DHT22;2004;52.452;13.120;2023-04-12T07:22:20;5.80;99.90
3980;DHT22;2004;52.452;13.120;2023-04-12T07:30:12;6.10;99.90
3980;DHT22;2004;52.452;13.120;2023-04-12T07:38:02;6.50;99.90
3980;DHT22;2004;52.452;13.120;2023-04-12T07:45:54;6.80;99.90
3980;DHT22;2004;52.452;13.120;2023-04-12T07:53:45;7.30;99.90
3980;DHT22;2004;52.452;13.120;2023-04-12T08:01:37;7.60;99.90
3980;DHT22;2004;52.452;13.120;2023-04-12T08:09:28;8.00;99.90
3980;DHT22;2004;52.452;13.120;2023-04-12T08:17:19;8.40;99.90
3980;DHT22;2004;52.452;13.120;2023-04-12T08:25:09;8.90;99.90
3980;DHT22;2004;52.452;13.120;2023-04-12T08:33:00;9.20;99.60
3980;DHT22;2004;52.452;13.120;2023-04-12T08:40:51;9.60;96.90
3980;DHT22;2004;52.452;13.120;2023-04-12T08:48:47;9.80;93.40
3980;DHT22;2004;52.452;13.120;2023-04-12T08:56:37;10.10;91.10
3980;DHT22;2004;52.452;13.120;2023-04-12T09:04:32;10.20;90.40
3980;DHT22;2004;52.452;13.120;2023-04-12T09:12:22;10.50;90.10
3980;DHT22;2004;52.452;13.120;2023-04-12T09:28:18;10.70;82.50
3980;DHT22;2004;52.452;13.120;2023-04-12T09:36:10;10.90;78.50
3980;DHT22;2004;52.452;13.120;2023-04-12T09:44:04;11.00;75.30
3980;DHT22;2004;52.452;13.120;2023-04-12T09:51:55;11.20;75.60
3980;DHT22;2004;52.452;13.120;2023-04-12T09:59:48;11.30;73.60
3980;DHT22;2004;52.452;13.120;2023-04-12T10:07:41;11.50;72.60
3980;DHT22;2004;52.452;13.120;2023-04-12T10:15:34;11.60;71.50
3980;DHT22;2004;52.452;13.120;2023-04-12T10:23:25;11.80;71.60
3980;DHT22;2004;52.452;13.120;2023-04-12T10:31:29;12.00;71.90
3980;DHT22;2004;52.452;13.120;2023-04-12T10:39:40;12.00;71.00
3980;DHT22;2004;52.452;13.120;2023-04-12T10:55:46;12.30;70.00
3980;DHT22;2004;52.452;13.120;2023-04-12T11:04:04;12.40;68.90
3980;DHT22;2004;52.452;13.120;2023-04-12T11:19:58;12.80;68.30
3980;DHT22;2004;52.452;13.120;2023-04-12T11:27:52;12.90;66.10
3980;DHT22;2004;52.452;13.120;2023-04-12T11:35:45;13.10;64.20
3980;DHT22;2004;52.452;13.120;2023-04-12T11:43:36;13.30;61.70
3980;DHT22;2004;52.452;13.120;2023-04-12T11:51:30;13.50;63.70
3980;DHT22;2004;52.452;13.120;2023-04-12T11:59:22;13.60;62.30
3980;DHT22;2004;52.452;13.120;2023-04-12T12:07:14;13.70;61.00
3980;DHT22;2004;52.452;13.120;2023-04-12T12:15:05;13.70;61.50
3980;DHT22;2004;52.452;13.120;2023-04-12T12:22:59;13.80;61.60
3980;DHT22;2004;52.452;13.120;2023-04-12T12:30:54;14.00;60.30
3980;DHT22;2004;52.452;13.120;2023-04-12T12:38:45;14.00;60.00
3980;DHT22;2004;52.452;13.120;2023-04-12T12:46:38;14.00;61.90
3980;DHT22;2004;52.452;13.120;2023-04-12T12:54:29;14.00;61.70
3980;DHT22;2004;52.452;13.120;2023-04-12T13:02:20;14.10;61.20
3980;DHT22;2004;52.452;13.120;2023-04-12T13:10:10;14.20;63.40
3980;DHT22;2004;52.452;13.120;2023-04-12T13:18:01;14.30;61.60
3980;DHT22;2004;52.452;13.120;2023-04-12T13:25:52;14.20;62.00
3980;DHT22;2004;52.452;13.120;2023-04-12T13:33:42;14.20;61.50
3980;DHT22;2004;52.452;13.120;2023-04-12T13:41:33;14.10;61.10
3980;DHT22;2004;52.452;13.120;2023-04-12T13:49:24;14.00;61.50
3980;DHT22;2004;52.452;13.120;2023-04-12T13:57:14;14.00;63.60
3980;DHT22;2004;52.452;13.120;2023-04-12T14:05:05;13.90;62.10
3980;DHT22;2004;52.452;13.120;2023-04-12T14:12:56;13.80;63.00
3980;DHT22;2004;52.452;13.120;2023-04-12T14:20:47;13.70;60.20
3980;DHT22;2004;52.452;13.120;2023-04-12T14:28:47;13.70;59.90
3980;DHT22;2004;52.452;13.120;2023-04-12T14:36:39;13.50;63.20
3980;DHT22;2004;52.452;13.120;2023-04-12T14:44:32;13.40;71.20
3980;DHT22;2004;52.452;13.120;2023-04-12T14:52:22;13.10;76.00
3980;DHT22;2004;52.452;13.120;2023-04-12T15:00:13;12.80;80.70
3980;DHT22;2004;52.452;13.120;2023-04-12T15:08:05;12.60;84.30
3980;DHT22;2004;52.452;13.120;2023-04-12T15:15:56;12.40;88.10
3980;DHT22;2004;52.452;13.120;2023-04-12T15:23:46;12.20;91.70
3980;DHT22;2004;52.452;13.120;2023-04-12T15:31:37;12.00;93.00
3980;DHT22;2004;52.452;13.120;2023-04-12T15:39:29;11.90;94.30
3980;DHT22;2004;52.452;13.120;2023-04-12T15:47:19;11.80;99.90
3980;DHT22;2004;52.452;13.120;2023-04-12T15:55:10;11.70;99.90
3980;DHT22;2004;52.452;13.120;2023-04-12T16:03:03;11.70;99.90
3980;DHT22;2004;52.452;13.120;2023-04-12T16:10:54;11.60;99.90
3980;DHT22;2004;52.452;13.120;2023-04-12T16:18:45;11.50;99.90
3980;DHT22;2004;52.452;13.120;2023-04-12T16:26:37;11.40;99.90
3980;DHT22;2004;52.452;13.120;2023-04-12T16:34:29;11.30;99.90
3980;DHT22;2004;52.452;13.120;2023-04-12T16:42:21;11.20;99.90
3980;DHT22;2004;52.452;13.120;2023-04-12T16:50:12;11.10;99.90
3980;DHT22;2004;52.452;13.120;2023-04-12T16:58:04;11.10;99.90
3980;DHT22;2004;52.452;13.120;2023-04-12T17:05:55;11.00;99.90
3980;DHT22;2004;52.452;13.120;2023-04-12T17:13:46;11.00;99.90
3980;DHT22;2004;52.452;13.120;2023-04-12T17:21:41;10.90;99.90
3980;DHT22;2004;52.452;13.120;2023-04-12T17:29:32;10.90;99.90
3980;DHT22;2004;52.452;13.120;2023-04-12T17:37:25;10.80;99.90
3980;DHT22;2004;52.452;13.120;2023-04-12T17:45:17;10.80;99.90
3980;DHT22;2004;52.452;13.120;2023-04-12T17:53:10;10.80;99.90
3980;DHT22;2004;52.452;13.120;2023-04-12T18:01:02;10.70;99.90
3980;DHT22;2004;52.452;13.120;2023-04-12T18:08:52;10.70;99.90
3980;DHT22;2004;52.452;13.120;2023-04-12T18:16:43;10.70;99.90
3980;DHT22;2004;52.452;13.120;2023-04-12T18:24:33;10.70;99.90
3980;DHT22;2004;52.452;13.120;2023-04-12T18:32:24;10.70;99.90
3980;DHT22;2004;52.452;13.120;2023-04-12T18:40:15;10.70;99.90
3980;DHT22;2004;52.452;13.120;2023-04-12T18:48:07;10.70;99.90
3980;DHT22;2004;52.452;13.120;2023-04-12T18:56:09;10.70;99.90
3980;DHT22;2004;52.452;13.120;2023-04-12T19:04:00;10.60;99.90
3980;DHT22;2004;52.452;13.120;2023-04-12T19:11:53;10.60;99.90
3980;DHT22;2004;52.452;13.120;2023-04-12T19:19:45;10.60;99.90
3980;DHT22;2004;52.452;13.120;2023-04-12T19:27:37;10.60;99.90
3980;DHT22;2004;52.452;13.120;2023-04-12T19:35:29;10.60;99.90
3980;DHT22;2004;52.452;13.120;2023-04-12T19:43:22;10.50;99.90
3980;DHT22;2004;52.452;13.120;2023-04-12T19:51:14;10.50;99.90
3980;DHT22;2004;52.452;13.120;2023-04-12T19:59:05;10.50;99.90
3980;DHT22;2004;52.452;13.120;2023-04-12T20:06:56;10.40;99.90
3980;DHT22;2004;52.452;13.120;2023-04-12T20:14:46;10.40;99.90
3980;DHT22;2004;52.452;13.120;2023-04-12T20:22:41;10.30;99.90
3980;DHT22;2004;52.452;13.120;2023-04-12T20:30:32;10.30;99.90
3980;DHT22;2004;52.452;13.120;2023-04-12T20:38:22;10.20;99.90
3980;DHT22;2004;52.452;13.120;2023-04-12T20:46:14;10.20;99.90
3980;DHT22;2004;52.452;13.120;2023-04-12T20:54:06;10.20;99.90
3980;DHT22;2004;52.452;13.120;2023-04-12T21:01:58;10.10;99.90
3980;DHT22;2004;52.452;13.120;2023-04-12T21:09:50;10.10;99.90
3980;DHT22;2004;52.452;13.120;2023-04-12T21:17:41;10.00;99.90
3980;DHT22;2004;52.452;13.120;2023-04-12T21:25:32;10.00;99.90
3980;DHT22;2004;52.452;13.120;2023-04-12T21:33:23;9.90;99.90
3980;DHT22;2004;52.452;13.120;2023-04-12T21:41:16;9.90;99.90
3980;DHT22;2004;52.452;13.120;2023-04-12T21:49:06;9.90;99.90
3980;DHT22;2004;52.452;13.120;2023-04-12T21:56:57;9.80;99.90
3980;DHT22;2004;52.452;13.120;2023-04-12T22:04:48;9.80;99.90
3980;DHT22;2004;52.452;13.120;2023-04-12T22:12:38;9.80;99.90
3980;DHT22;2004;52.452;13.120;2023-04-12T22:20:30;9.70;99.90
3980;DHT22;2004;52.452;13.120;2023-04-12T22:28:23;9.70;99.90
3980;DHT22;2004;52.452;13.120;2023-04-12T22:36:13;9.60;99.90
3980;DHT22;2004;52.452;13.120;2023-04-12T22:44:04;9.60;99.90
3980;DHT22;2004;52.452;13.120;2023-04-12T22:51:56;9.60;99.90
3980;DHT22;2004;52.452;13.120;2023-04-12T22:59:47;9.50;99.90
3980;DHT22;2004;52.452;13.120;2023-04-12T23:07:38;9.50;99.90
3980;DHT22;2004;52.452;13.120;2023-04-12T23:15:32;9.40;99.90
3980;DHT22;2004;52.452;13.120;2023-04-12T23:23:23;9.40;99.90
3980;DHT22;2004;52.452;13.120;2023-04-12T23:31:14;9.30;99.90
3980;DHT22;2004;52.452;13.120;2023-04-12T23:39:05;9.30;99.90
3980;DHT22;2004;52.452;13.120;2023-04-12T23:46:58;9.30;99.90
3980;DHT22;2004;52.452;13.120;2023-04-12T23:54:49;9.20;99.90
